createdAt,value
2022-11-29T00:03:18.842Z,6.03
2022-11-29T00:08:23.981Z,6.17
2022-11-29T00:13:27.060Z,6.30
2022-11-29T00:18:30.542Z,6.37
2022-11-29T00:23:34.018Z,6.36
2022-11-29T00:28:38.125Z,6.40
2022-11-29T00:33:41.708Z,6.43
2022-11-29T00:38:45.641Z,6.51
2022-11-29T00:43:49.656Z,6.53
2022-11-29T00:48:52.724Z,6.58
2022-11-29T00:53:56.326Z,6.54
2022-11-29T00:58:59.416Z,6.56
2022-11-29T01:04:02.991Z,6.57
2022-11-29T01:09:06.402Z,6.54
2022-11-29T01:14:12.754Z,6.56
2022-11-29T01:19:16.889Z,6.58
2022-11-29T01:24:22.565Z,6.57
2022-11-29T01:29:25.668Z,6.54
2022-11-29T01:34:28.808Z,6.54
2022-11-29T01:39:33.017Z,6.50
2022-11-29T01:44:36.665Z,6.69
2022-11-29T01:49:44.998Z,6.69
2022-11-29T01:54:51.782Z,6.66
2022-11-29T02:00:08.879Z,6.60
2022-11-29T02:05:20.458Z,6.60
2022-11-29T02:10:33.809Z,6.62
2022-11-29T02:16:03.969Z,6.68
2022-11-29T02:21:15.272Z,6.65
2022-11-29T02:26:59.390Z,6.68
2022-11-29T02:32:21.909Z,6.69
2022-11-29T02:37:53.918Z,6.65
2022-11-29T02:43:19.635Z,6.69
2022-11-29T02:48:51.653Z,6.67
2022-11-29T02:54:13.540Z,6.65
2022-11-29T02:59:30.318Z,6.61
2022-11-29T03:04:45.667Z,6.58
2022-11-29T03:09:58.193Z,6.45
2022-11-29T03:15:20.422Z,6.45
2022-11-29T03:20:32.289Z,6.48
2022-11-29T03:25:51.936Z,6.44
2022-11-29T03:31:20.009Z,6.44
2022-11-29T03:37:04.342Z,6.44
2022-11-29T03:42:20.183Z,6.37
2022-11-29T03:47:31.739Z,6.29
2022-11-29T03:52:43.338Z,6.33
2022-11-29T03:58:09.045Z,6.31
2022-11-29T04:03:33.305Z,6.30
2022-11-29T04:08:44.984Z,6.29
2022-11-29T04:14:22.269Z,6.28
2022-11-29T04:20:00.906Z,6.19
2022-11-29T04:25:27.515Z,6.21
2022-11-29T04:31:00.146Z,6.17
2022-11-29T04:36:35.624Z,6.13
2022-11-29T04:42:12.789Z,6.09
2022-11-29T04:47:55.911Z,6.01
2022-11-29T04:53:13.880Z,6.04
2022-11-29T04:58:27.018Z,5.96
2022-11-29T05:03:59.473Z,5.96
2022-11-29T05:09:09.720Z,6.00
2022-11-29T05:14:27.811Z,6.00
2022-11-29T05:19:43.786Z,5.87
2022-11-29T05:25:01.339Z,5.97
2022-11-29T05:30:12.495Z,5.98
2022-11-29T05:35:34.726Z,6.03
2022-11-29T05:40:52.005Z,6.05
2022-11-29T05:46:19.446Z,6.12
2022-11-29T05:51:37.279Z,6.20
2022-11-29T05:57:05.902Z,6.30
2022-11-29T06:02:29.709Z,6.34
2022-11-29T06:08:03.668Z,6.44
2022-11-29T06:13:31.092Z,5.99
2022-11-29T06:18:59.351Z,5.79
2022-11-29T06:24:38.353Z,5.76
2022-11-29T06:29:47.653Z,5.87
2022-11-29T06:35:11.682Z,5.85
2022-11-29T06:40:16.702Z,5.96
2022-11-29T06:45:22.278Z,6.00
2022-11-29T06:50:49.911Z,6.09
2022-11-29T06:56:21.713Z,6.07
2022-11-29T07:01:35.491Z,6.10
2022-11-29T07:06:39.406Z,6.13
2022-11-29T07:11:43.791Z,6.19
2022-11-29T07:17:11.439Z,6.19
2022-11-29T07:22:35.162Z,6.21
2022-11-29T07:27:55.934Z,6.18
2022-11-29T07:33:17.017Z,6.24
2022-11-29T07:38:26.371Z,6.08
2022-11-29T07:43:54.706Z,6.21
2022-11-29T07:48:57.926Z,6.16
2022-11-29T07:54:02.018Z,6.20
2022-11-29T07:59:05.713Z,6.18
2022-11-29T08:04:09.646Z,6.07
2022-11-29T08:09:13.280Z,6.11
2022-11-29T08:14:16.818Z,5.91
2022-11-29T08:19:20.699Z,6.24
2022-11-29T08:24:24.530Z,6.05
2022-11-29T08:29:28.762Z,6.09
2022-11-29T08:34:32.193Z,6.04
2022-11-29T08:39:35.764Z,6.09
2022-11-29T08:44:39.800Z,6.09
2022-11-29T08:50:01.578Z,6.07
2022-11-29T08:55:05.552Z,5.98
2022-11-29T09:00:10.958Z,5.80
2022-11-29T09:05:15.500Z,5.82
2022-11-29T09:10:18.926Z,5.81
2022-11-29T09:15:22.870Z,5.82
2022-11-29T09:20:26.058Z,5.82
2022-11-29T09:25:30.004Z,5.82
2022-11-29T09:30:35.406Z,5.75
2022-11-29T09:35:39.133Z,5.81
2022-11-29T09:41:08.530Z,5.87
2022-11-29T09:46:23.004Z,5.89
2022-11-29T09:52:00.137Z,6.08
2022-11-29T09:57:10.641Z,5.92
2022-11-29T10:02:22.120Z,5.81
2022-11-29T10:07:47.156Z,5.76
2022-11-29T10:12:56.939Z,5.72
2022-11-29T10:18:19.227Z,5.64
2022-11-29T10:23:40.219Z,5.91
2022-11-29T10:28:45.537Z,6.22
2022-11-29T10:33:50.476Z,6.52
2022-11-29T10:38:59.316Z,6.67
2022-11-29T10:44:02.818Z,6.80
2022-11-29T10:49:11.020Z,6.76
2022-11-29T10:54:26.879Z,6.80
2022-11-29T10:59:32.641Z,6.86
2022-11-29T11:04:44.724Z,6.94
2022-11-29T11:09:50.797Z,7.00
2022-11-29T11:15:27.008Z,7.31
2022-11-29T11:20:33.192Z,7.67
2022-11-29T11:25:39.531Z,8.20
2022-11-29T11:30:51.591Z,8.67
2022-11-29T11:36:02.982Z,9.29
2022-11-29T11:41:06.747Z,9.35
2022-11-29T11:46:13.962Z,9.23
2022-11-29T11:51:25.800Z,9.32
2022-11-29T11:56:36.189Z,9.46
2022-11-29T12:01:40.057Z,9.42
2022-11-29T12:06:46.100Z,9.74
2022-11-29T12:12:07.371Z,10.37
2022-11-29T12:17:28.418Z,10.70
2022-11-29T12:22:45.164Z,10.92
2022-11-29T12:27:51.982Z,12.41
2022-11-29T12:33:09.462Z,12.98
2022-11-29T12:38:23.574Z,12.30
2022-11-29T12:43:35.059Z,12.80
2022-11-29T12:48:55.166Z,12.26
2022-11-29T12:54:26.726Z,11.66
2022-11-29T12:59:47.802Z,12.62
2022-11-29T13:05:26.224Z,11.43
2022-11-29T13:10:43.061Z,11.93
2022-11-29T13:16:04.055Z,12.52
2022-11-29T13:21:25.110Z,12.60
2022-11-29T13:26:30.245Z,11.12
2022-11-29T13:31:34.041Z,10.43
2022-11-29T13:36:52.380Z,9.96
2022-11-29T13:42:20.336Z,9.63
2022-11-29T13:47:23.931Z,9.35
2022-11-29T13:52:47.226Z,9.12
2022-11-29T13:58:15.353Z,9.01
2022-11-29T14:03:22.643Z,9.08
2022-11-29T14:08:54.564Z,9.16
2022-11-29T14:14:06.389Z,8.86
2022-11-29T14:19:09.649Z,9.01
2022-11-29T14:24:37.637Z,9.12
2022-11-29T14:29:55.765Z,9.15
2022-11-29T14:35:20.799Z,9.10
2022-11-29T14:40:37.198Z,8.86
2022-11-29T14:45:40.616Z,8.79
2022-11-29T14:50:43.758Z,8.73
2022-11-29T14:55:48.580Z,8.51
2022-11-29T15:00:56.463Z,8.23
2022-11-29T15:06:26.234Z,8.03
2022-11-29T15:11:48.405Z,7.78
2022-11-29T15:16:57.540Z,7.54
2022-11-29T15:22:07.655Z,7.39
2022-11-29T15:27:13.968Z,7.23
2022-11-29T15:32:24.428Z,7.19
2022-11-29T15:37:37.631Z,6.93
2022-11-29T15:43:02.809Z,6.66
2022-11-29T15:48:26.145Z,6.46
2022-11-29T15:53:38.927Z,6.27
2022-11-29T15:58:45.198Z,6.20
2022-11-29T16:03:54.043Z,6.18
2022-11-29T16:08:58.589Z,6.30
2022-11-29T16:14:25.815Z,6.30
2022-11-29T16:19:33.843Z,6.26
2022-11-29T16:24:39.753Z,6.18
2022-11-29T16:29:45.729Z,6.39
2022-11-29T16:34:49.167Z,6.49
2022-11-29T16:39:59.941Z,6.57
2022-11-29T16:45:07.799Z,6.60
2022-11-29T16:50:22.277Z,6.64
2022-11-29T16:55:25.312Z,6.55
2022-11-29T17:00:33.833Z,6.58
2022-11-29T17:05:43.141Z,6.47
2022-11-29T17:10:48.581Z,6.55
2022-11-29T17:15:51.727Z,6.46
2022-11-29T17:20:59.834Z,6.39
2022-11-29T17:26:03.257Z,6.34
2022-11-29T17:31:14.087Z,6.20
2022-11-29T17:36:20.303Z,6.27
2022-11-29T17:41:25.093Z,6.32
2022-11-29T17:46:36.663Z,6.29
2022-11-29T17:51:56.436Z,6.29
2022-11-29T17:57:05.115Z,6.29
2022-11-29T18:02:15.027Z,6.35
2022-11-29T18:07:18.709Z,6.37
2022-11-29T18:12:22.954Z,6.38
2022-11-29T18:17:26.092Z,6.36
2022-11-29T18:22:28.974Z,6.28
2022-11-29T18:27:31.885Z,6.37
2022-11-29T18:32:34.879Z,6.24
2022-11-29T18:38:12.912Z,6.40
2022-11-29T18:43:00.783Z,6.42
2022-11-29T18:48:04.838Z,6.44
2022-11-29T18:53:08.240Z,6.43
2022-11-29T18:58:11.554Z,6.46
2022-11-29T19:03:14.477Z,6.42
2022-11-29T19:08:17.609Z,6.38
2022-11-29T19:13:20.636Z,6.45
2022-11-29T19:18:23.922Z,6.43
2022-11-29T19:23:27.293Z,6.30
2022-11-29T19:28:30.743Z,6.20
2022-11-29T19:33:36.150Z,6.14
2022-11-29T19:38:40.562Z,6.10
2022-11-29T19:43:45.118Z,6.08
2022-11-29T19:48:49.258Z,6.04
2022-11-29T19:53:55.124Z,5.98
2022-11-29T19:59:02.420Z,5.94
2022-11-29T20:04:05.700Z,5.91
2022-11-29T20:09:09.006Z,5.75
2022-11-29T20:14:13.349Z,5.84
2022-11-29T20:19:17.878Z,5.82
2022-11-29T20:24:22.396Z,5.82
2022-11-29T20:29:31.160Z,5.87
2022-11-29T20:34:35.981Z,5.80
2022-11-29T20:39:49.486Z,5.83
2022-11-29T20:44:59.644Z,5.82
2022-11-29T20:50:04.331Z,5.73
2022-11-29T20:55:09.239Z,5.77
2022-11-29T21:00:14.030Z,5.71
2022-11-29T21:05:17.991Z,5.67
2022-11-29T21:10:23.239Z,5.52
2022-11-29T21:15:27.991Z,5.59
2022-11-29T21:20:31.810Z,5.62
2022-11-29T21:25:44.465Z,5.62
2022-11-29T21:30:47.867Z,5.59
2022-11-29T21:35:55.232Z,5.51
2022-11-29T21:40:58.712Z,5.53
2022-11-29T21:46:02.291Z,5.51
2022-11-29T21:51:08.424Z,5.47
2022-11-29T21:56:12.410Z,5.57
2022-11-29T22:01:20.036Z,5.55
2022-11-29T22:06:24.500Z,5.67
2022-11-29T22:11:37.124Z,5.61
2022-11-29T22:16:49.566Z,5.62
2022-11-29T22:22:00.206Z,5.53
2022-11-29T22:27:04.070Z,5.57
2022-11-29T22:32:07.244Z,5.57
2022-11-29T22:37:12.665Z,5.28
2022-11-29T22:42:15.807Z,5.09
2022-11-29T22:47:19.456Z,4.97
2022-11-29T22:52:23.114Z,4.80
2022-11-29T22:57:27.071Z,4.69
2022-11-29T23:02:30.577Z,4.56
2022-11-29T23:07:34.493Z,4.38
2022-11-29T23:12:37.817Z,4.33
2022-11-29T23:17:41.367Z,4.28
2022-11-29T23:22:45.092Z,4.39
2022-11-29T23:27:50.950Z,4.32
2022-11-29T23:32:54.310Z,4.25
2022-11-29T23:37:57.671Z,4.28
2022-11-29T23:43:01.450Z,4.20
2022-11-29T23:48:05.521Z,4.21
2022-11-29T23:53:13.510Z,4.23
2022-11-29T23:58:17.071Z,4.22
